Time;durP1;ratioP1;P1;durP2;ratioP2;P2;SDS_P1;SDS_P2;PMS_P1;PMS_P2;Temp;Humidity;BMP_temperature;BMP_pressure;BME280_temperature;BME280_humidity;BME280_pressure;Samples;Min_cycle;Max_cycle;Signal;HPM_P1;HPM_P2
2022/01/26 05:01:21;;;;;;;76.03;32.33;;;1.70;99.90;;;;;;5597415;23;20490;-66
2022/01/26 05:03:48;;;;;;;75.47;34.10;;;1.70;99.90;;;;;;5036341;28;20453;-67
2022/01/26 05:06:15;;;;;;;73.43;35.97;;;1.70;99.90;;;;;;5036814;28;20908;-66
2022/01/26 05:08:41;;;;;;;74.47;34.00;;;1.80;99.90;;;;;;5036340;28;20467;-66
2022/01/26 05:11:12;;;;;;;69.37;32.67;;;1.80;99.90;;;;;;5035501;28;20986;-66
2022/01/26 05:13:39;;;;;;;71.63;33.70;;;1.90;99.90;;;;;;5035918;28;20437;-66
2022/01/26 05:16:08;;;;;;;73.30;33.97;;;1.90;99.90;;;;;;5036430;28;20458;-66
2022/01/26 05:18:37;;;;;;;83.70;35.17;;;1.90;99.90;;;;;;5036255;28;20519;-66
2022/01/26 05:21:04;;;;;;;69.30;34.10;;;1.90;99.90;;;;;;5036422;28;20567;-66
2022/01/26 05:23:31;;;;;;;68.57;32.77;;;2.00;99.90;;;;;;5040640;28;20495;-66
2022/01/26 05:25:58;;;;;;;73.07;33.77;;;2.00;99.90;;;;;;5035892;28;20943;-67
2022/01/26 05:28:24;;;;;;;75.00;34.63;;;2.00;99.90;;;;;;5035908;28;20464;-67
2022/01/26 05:30:51;;;;;;;75.30;33.40;;;2.00;99.90;;;;;;5035631;28;20489;-67
2022/01/26 05:33:19;;;;;;;71.83;33.30;;;2.00;99.90;;;;;;5035791;28;20460;-68
2022/01/26 05:35:47;;;;;;;74.73;33.00;;;2.00;99.90;;;;;;5035949;28;20456;-68
2022/01/26 05:38:14;;;;;;;79.63;33.90;;;2.00;99.90;;;;;;5035904;28;20496;-68
2022/01/26 05:40:41;;;;;;;65.80;30.97;;;2.00;99.90;;;;;;5035799;28;20468;-68
2022/01/26 05:43:07;;;;;;;75.50;32.87;;;2.00;99.90;;;;;;5035330;28;20465;-67
2022/01/26 05:45:37;;;;;;;77.80;32.50;;;2.10;99.90;;;;;;5034754;28;20456;-68
2022/01/26 05:48:09;;;;;;;76.40;34.77;;;2.10;99.90;;;;;;5035739;28;20559;-68
2022/01/26 05:50:37;;;;;;;73.93;31.70;;;2.10;99.90;;;;;;5035503;28;20507;-68
2022/01/26 05:53:06;;;;;;;73.57;32.33;;;2.10;99.90;;;;;;5035487;28;20456;-68
2022/01/26 05:55:32;;;;;;;77.07;32.90;;;2.10;99.90;;;;;;5041549;28;20460;-67
2022/01/26 05:57:59;;;;;;;75.10;34.67;;;2.00;99.90;;;;;;5043518;28;20801;-67
2022/01/26 06:00:26;;;;;;;85.80;33.50;;;2.00;99.90;;;;;;5036846;28;20441;-66
2022/01/26 06:02:53;;;;;;;71.13;33.20;;;2.00;99.90;;;;;;5035563;28;20444;-66
2022/01/26 06:05:19;;;;;;;65.10;30.07;;;2.00;99.90;;;;;;5035445;28;20441;-65
2022/01/26 06:07:46;;;;;;;76.07;31.67;;;2.00;99.90;;;;;;5035194;28;20943;-66
2022/01/26 06:10:15;;;;;;;63.60;30.47;;;2.00;99.90;;;;;;5034903;28;20456;-67
2022/01/26 06:12:41;;;;;;;63.93;32.00;;;1.90;99.90;;;;;;5035406;28;20448;-66
2022/01/26 06:15:09;;;;;;;67.30;30.60;;;1.90;99.90;;;;;;5035016;28;20460;-66
2022/01/26 06:17:35;;;;;;;76.93;31.23;;;1.80;99.90;;;;;;5035269;28;20452;-67
2022/01/26 06:20:02;;;;;;;81.77;32.10;;;1.80;99.90;;;;;;5035018;28;20944;-67
2022/01/26 06:22:29;;;;;;;72.80;32.63;;;1.80;99.90;;;;;;5034741;28;20472;-67
2022/01/26 06:24:58;;;;;;;71.93;31.67;;;1.90;99.90;;;;;;5035113;28;20436;-67
2022/01/26 06:27:26;;;;;;;74.47;31.70;;;1.90;99.90;;;;;;5035122;28;20440;-67
2022/01/26 06:29:53;;;;;;;78.07;33.30;;;1.80;99.90;;;;;;5034877;28;20444;-67
2022/01/26 06:32:20;;;;;;;83.53;32.30;;;1.80;99.90;;;;;;5034456;28;20832;-67
2022/01/26 06:34:47;;;;;;;73.50;31.90;;;1.80;99.90;;;;;;5034540;28;20861;-66
2022/01/26 06:37:15;;;;;;;69.77;32.50;;;1.90;99.90;;;;;;5035116;28;20437;-67
2022/01/26 06:39:42;;;;;;;74.47;32.60;;;1.90;99.90;;;;;;5034720;28;20816;-66
2022/01/26 06:42:13;;;;;;;76.83;34.60;;;1.90;99.90;;;;;;5034847;28;20468;-67
2022/01/26 06:44:51;;;;;;;73.50;32.47;;;2.00;99.90;;;;;;5034674;28;20437;-67
2022/01/26 06:47:33;;;;;;;70.70;32.87;;;2.00;99.90;;;;;;5034700;28;20447;-66
2022/01/26 06:50:00;;;;;;;76.83;33.07;;;2.00;99.90;;;;;;5034487;28;20437;-66
2022/01/26 06:52:27;;;;;;;65.17;32.33;;;1.80;99.90;;;;;;5035656;28;20484;-66
2022/01/26 06:54:54;;;;;;;77.50;34.10;;;1.80;99.90;;;;;;5041375;28;20459;-66
2022/01/26 06:57:20;;;;;;;66.93;33.70;;;1.80;99.90;;;;;;5035514;28;20456;-66
2022/01/26 06:59:48;;;;;;;79.60;34.00;;;1.80;99.90;;;;;;5034518;28;20462;-66
2022/01/26 07:02:15;;;;;;;77.50;33.90;;;1.80;99.90;;;;;;5033894;28;20499;-67
2022/01/26 07:04:42;;;;;;;80.70;35.73;;;1.80;99.90;;;;;;5034066;28;20464;-67
2022/01/26 07:07:09;;;;;;;76.40;34.03;;;1.80;99.90;;;;;;5034135;28;20456;-67
2022/01/26 07:09:35;;;;;;;68.60;31.57;;;1.80;99.90;;;;;;5033794;28;20459;-69
2022/01/26 07:12:02;;;;;;;63.70;30.63;;;2.30;99.90;;;;;;5033683;28;20480;-68
2022/01/26 07:20:18;;;;;;;63.43;30.67;;;3.10;99.90;;;;;;5033071;28;20444;-66
2022/01/26 07:22:42;;;;;;;68.13;32.97;;;3.10;99.90;;;;;;5032995;28;20452;-66
2022/01/26 07:25:09;;;;;;;61.17;30.30;;;3.00;99.90;;;;;;5032983;28;20456;-66
2022/01/26 07:27:36;;;;;;;62.90;31.67;;;3.00;99.90;;;;;;5033352;28;20452;-67
2022/01/26 07:30:03;;;;;;;62.60;33.60;;;2.90;99.90;;;;;;5033243;28;20938;-67
2022/01/26 07:32:31;;;;;;;64.47;32.93;;;2.70;99.90;;;;;;5033131;28;20512;-66
2022/01/26 07:34:57;;;;;;;65.40;32.00;;;2.60;99.90;;;;;;5033343;28;20463;-67
2022/01/26 07:37:25;;;;;;;62.93;31.20;;;2.40;99.90;;;;;;5033159;28;20462;-66
2022/01/26 07:40:03;;;;;;;62.17;32.37;;;2.40;99.90;;;;;;5033290;28;20456;-66
2022/01/26 07:42:30;;;;;;;59.10;30.40;;;2.30;99.90;;;;;;5033328;28;20473;-66
2022/01/26 07:44:57;;;;;;;62.60;31.53;;;2.30;99.90;;;;;;5033345;28;20840;-66
2022/01/26 07:47:24;;;;;;;64.67;30.97;;;2.20;99.90;;;;;;5033079;28;20939;-66
2022/01/26 07:49:55;;;;;;;63.70;32.23;;;2.10;99.90;;;;;;5033285;28;20813;-67
2022/01/26 07:52:22;;;;;;;67.90;33.90;;;2.20;99.90;;;;;;5033052;28;20507;-66
2022/01/26 07:54:51;;;;;;;70.27;32.50;;;2.20;99.90;;;;;;5033391;28;20452;-66
2022/01/26 07:57:18;;;;;;;69.30;32.70;;;2.10;99.90;;;;;;5033464;28;20522;-66
2022/01/26 07:59:45;;;;;;;71.37;34.90;;;2.00;99.90;;;;;;5033040;28;20448;-66
2022/01/26 08:02:12;;;;;;;85.97;32.77;;;2.00;99.90;;;;;;5032996;28;20483;-66
2022/01/26 08:04:39;;;;;;;72.43;33.70;;;1.80;99.90;;;;;;5033266;28;20464;-66
2022/01/26 08:07:07;;;;;;;77.83;34.23;;;1.80;99.90;;;;;;5033440;28;20460;-66
2022/01/26 08:09:34;;;;;;;70.20;32.60;;;1.80;99.90;;;;;;5036761;28;20464;-66
2022/01/26 08:12:01;;;;;;;78.97;30.17;;;1.70;99.90;;;;;;5037119;28;20483;-66
2022/01/26 08:14:27;;;;;;;73.87;32.57;;;1.70;99.90;;;;;;5036929;28;20452;-67
2022/01/26 08:16:54;;;;;;;90.97;34.80;;;1.70;99.90;;;;;;5037161;28;20460;-66
2022/01/26 08:19:21;;;;;;;69.43;32.27;;;1.70;99.90;;;;;;5036588;28;20951;-66
2022/01/26 08:21:48;;;;;;;64.73;29.97;;;1.70;99.90;;;;;;5036694;28;21058;-66
2022/01/26 08:24:16;;;;;;;68.27;31.07;;;1.80;99.90;;;;;;5038098;28;20895;-66
2022/01/26 08:26:47;;;;;;;66.80;30.83;;;1.60;99.90;;;;;;5046277;28;20476;-66
2022/01/26 08:29:18;;;;;;;62.90;31.00;;;1.70;99.90;;;;;;5041102;28;20437;-66
2022/01/26 08:31:44;;;;;;;73.53;33.43;;;1.60;99.90;;;;;;5037409;28;20490;-66
2022/01/26 08:34:12;;;;;;;77.50;31.13;;;1.70;99.90;;;;;;5037041;28;20456;-66
2022/01/26 08:36:39;;;;;;;72.63;34.57;;;1.70;99.90;;;;;;5037656;28;20452;-66
2022/01/26 08:39:06;;;;;;;64.13;32.13;;;1.70;99.90;;;;;;5038177;28;20464;-66
2022/01/26 08:41:34;;;;;;;70.93;32.53;;;1.80;99.90;;;;;;5038608;28;20472;-66
2022/01/26 08:44:00;;;;;;;59.00;30.50;;;1.80;99.90;;;;;;5038775;28;20456;-66
2022/01/26 08:46:27;;;;;;;65.90;31.33;;;1.80;99.90;;;;;;5038153;28;20456;-66
2022/01/26 08:48:54;;;;;;;64.13;31.40;;;1.80;99.90;;;;;;5037661;28;20459;-66
2022/01/26 08:51:21;;;;;;;65.03;31.87;;;1.80;99.90;;;;;;5037880;28;20484;-67
2022/01/26 08:53:48;;;;;;;65.17;32.03;;;1.80;99.90;;;;;;5037285;28;20456;-66
2022/01/26 08:56:15;;;;;;;62.60;31.17;;;1.80;99.90;;;;;;5037805;28;20455;-66
2022/01/26 08:58:43;;;;;;;54.90;28.60;;;1.70;99.90;;;;;;5037034;28;20483;-66
2022/01/26 09:01:10;;;;;;;55.57;28.43;;;1.80;99.90;;;;;;5036470;28;20476;-66
2022/01/26 09:03:39;;;;;;;51.93;27.50;;;1.70;99.90;;;;;;5036429;28;20456;-66
2022/01/26 09:06:06;;;;;;;51.33;26.47;;;1.80;99.90;;;;;;5036477;28;20903;-66
2022/01/26 09:08:33;;;;;;;52.60;26.10;;;1.80;99.90;;;;;;5042286;28;20452;-66
2022/01/26 09:11:01;;;;;;;47.83;25.70;;;1.80;99.90;;;;;;5046341;28;20472;-66
2022/01/26 09:13:30;;;;;;;53.57;27.40;;;1.80;99.90;;;;;;5039223;28;20550;-66
2022/01/26 09:15:59;;;;;;;48.37;25.20;;;1.80;99.90;;;;;;5036818;28;20459;-66
2022/01/26 09:18:33;;;;;;;51.87;26.37;;;1.80;99.90;;;;;;5035218;28;20819;-67
2022/01/26 09:21:00;;;;;;;58.43;26.17;;;1.80;99.90;;;;;;5035525;28;20562;-66
2022/01/26 09:23:27;;;;;;;52.20;26.47;;;1.70;99.90;;;;;;5035504;28;20528;-66
2022/01/26 09:25:53;;;;;;;52.87;29.03;;;1.70;99.90;;;;;;5035586;28;20463;-66
2022/01/26 09:28:21;;;;;;;55.77;28.67;;;1.80;99.90;;;;;;5035499;28;20456;-66
2022/01/26 09:30:48;;;;;;;57.20;28.40;;;1.80;99.90;;;;;;5035335;28;20472;-67
2022/01/26 09:33:16;;;;;;;51.90;28.40;;;1.80;99.90;;;;;;5035440;28;20476;-66
2022/01/26 09:35:44;;;;;;;55.30;28.80;;;1.80;99.90;;;;;;5035306;28;20475;-66
2022/01/26 09:38:11;;;;;;;51.63;27.53;;;1.90;99.90;;;;;;5035083;28;20449;-67
2022/01/26 09:40:38;;;;;;;50.20;28.33;;;1.90;99.90;;;;;;5034883;28;20479;-66
2022/01/26 09:43:05;;;;;;;53.30;29.40;;;1.80;99.90;;;;;;5035098;28;20448;-67
2022/01/26 09:45:34;;;;;;;49.93;28.30;;;1.80;99.90;;;;;;5035041;28;20456;-65
2022/01/26 09:48:01;;;;;;;49.33;28.30;;;1.80;99.90;;;;;;5035071;28;20457;-66
2022/01/26 09:50:29;;;;;;;46.30;27.70;;;1.90;99.90;;;;;;5034901;28;20764;-66
2022/01/26 09:52:57;;;;;;;49.67;27.53;;;1.90;99.90;;;;;;5034924;28;20472;-66
2022/01/26 09:55:24;;;;;;;50.17;28.27;;;2.00;99.90;;;;;;5034551;28;20452;-65
2022/01/26 09:57:57;;;;;;;51.40;26.87;;;2.00;99.90;;;;;;5035000;28;20974;-67
2022/01/26 10:00:24;;;;;;;53.43;27.87;;;2.10;99.90;;;;;;5040783;28;20447;-67
2022/01/26 10:02:56;;;;;;;53.43;28.73;;;2.10;99.90;;;;;;5034802;28;20439;-68
2022/01/26 10:05:24;;;;;;;58.43;29.80;;;2.00;99.90;;;;;;5034966;28;20441;-67
2022/01/26 10:08:02;;;;;;;54.60;29.80;;;2.10;99.90;;;;;;5034782;28;20492;-67
2022/01/26 10:16:04;;;;;;;51.70;29.57;;;2.10;99.90;;;;;;5036202;28;20424;-66
2022/01/26 10:18:32;;;;;;;64.80;30.40;;;2.20;99.90;;;;;;5035494;28;20447;-66
2022/01/26 10:21:01;;;;;;;49.97;28.20;;;2.00;99.90;;;;;;5037671;28;20564;-68
2022/01/26 10:23:35;;;;;;;52.83;27.20;;;2.00;99.90;;;;;;5035428;28;20448;-67
2022/01/26 10:26:05;;;;;;;46.93;27.07;;;2.10;99.90;;;;;;5035234;28;20441;-67
2022/01/26 10:28:42;;;;;;;45.30;26.60;;;2.20;99.90;;;;;;5035202;28;20452;-67
2022/01/26 10:31:14;;;;;;;46.10;26.33;;;2.30;99.90;;;;;;5034147;28;21006;-66
2022/01/26 10:33:41;;;;;;;45.80;25.40;;;2.30;99.90;;;;;;5034637;28;20934;-67
2022/01/26 10:36:08;;;;;;;44.23;25.83;;;2.40;99.90;;;;;;5034674;28;20479;-67
2022/01/26 10:38:36;;;;;;;45.70;24.80;;;2.40;99.90;;;;;;5034908;28;20463;-66
2022/01/26 10:41:02;;;;;;;42.00;24.50;;;2.30;99.90;;;;;;5034781;28;20476;-66
2022/01/26 10:43:31;;;;;;;41.10;25.00;;;2.40;99.90;;;;;;5035120;28;20931;-66
2022/01/26 10:46:02;;;;;;;42.83;24.17;;;2.40;99.90;;;;;;5034604;28;20457;-67
2022/01/26 10:48:38;;;;;;;47.57;24.30;;;2.40;99.90;;;;;;5034585;28;20535;-68
2022/01/26 10:51:34;;;;;;;48.47;27.17;;;2.30;99.90;;;;;;5033688;28;20978;-67
2022/01/26 10:54:12;;;;;;;49.77;26.87;;;2.20;99.90;;;;;;5034868;28;20514;-66
2022/01/26 10:56:40;;;;;;;48.57;27.80;;;2.20;99.90;;;;;;5034815;28;20440;-67
2022/01/26 10:59:07;;;;;;;49.80;26.80;;;2.20;99.90;;;;;;5034609;28;20452;-66
2022/01/26 11:01:36;;;;;;;52.70;27.17;;;2.10;99.90;;;;;;5034308;28;20488;-67
2022/01/26 11:04:03;;;;;;;55.93;27.30;;;1.90;99.90;;;;;;5034135;28;20459;-67
2022/01/26 11:06:31;;;;;;;44.77;26.67;;;1.80;99.90;;;;;;5034216;28;20452;-66
2022/01/26 11:09:00;;;;;;;49.57;27.87;;;1.90;99.90;;;;;;5033702;28;20452;-66
2022/01/26 11:11:28;;;;;;;60.00;29.33;;;1.70;99.90;;;;;;5033860;28;20472;-66
2022/01/26 11:13:55;;;;;;;50.87;26.00;;;1.60;99.90;;;;;;5033994;28;20452;-66
2022/01/26 11:16:22;;;;;;;60.60;29.30;;;1.60;99.90;;;;;;5034289;28;20447;-66
2022/01/26 11:18:51;;;;;;;51.00;26.43;;;1.50;99.90;;;;;;5034091;28;20531;-66
2022/01/26 11:21:30;;;;;;;48.77;26.37;;;1.50;99.90;;;;;;5034373;28;20476;-66
2022/01/26 11:24:08;;;;;;;48.83;28.70;;;1.40;99.90;;;;;;5033663;28;20440;-66
2022/01/26 11:26:38;;;;;;;48.10;28.40;;;1.60;99.90;;;;;;5033904;28;20507;-66
2022/01/26 11:29:15;;;;;;;51.60;25.40;;;1.60;99.90;;;;;;5033967;28;20470;-66
2022/01/26 11:31:42;;;;;;;45.93;25.43;;;1.50;99.90;;;;;;5034386;28;20471;-66
2022/01/26 11:34:10;;;;;;;45.23;25.50;;;1.70;99.90;;;;;;5033812;28;20499;-66
2022/01/26 11:36:40;;;;;;;48.03;27.93;;;1.60;99.90;;;;;;5034178;28;20996;-66
2022/01/26 11:45:08;;;;;;;46.47;24.77;;;1.60;99.90;;;;;;5002026;28;20443;-65
2022/01/26 11:47:39;;;;;;;48.23;25.13;;;1.50;99.90;;;;;;5037459;28;20531;-66
2022/01/26 11:50:14;;;;;;;51.97;26.77;;;1.60;99.90;;;;;;5037627;28;20440;-66
2022/01/26 11:52:41;;;;;;;44.63;25.20;;;1.70;99.90;;;;;;5037356;28;20460;-66
2022/01/26 11:55:24;;;;;;;49.67;24.00;;;1.60;99.90;;;;;;5037503;28;20456;-66
2022/01/26 11:57:54;;;;;;;44.63;23.03;;;1.70;99.90;;;;;;5037740;28;20440;-66
2022/01/26 12:00:39;;;;;;;49.10;25.03;;;1.70;99.90;;;;;;5038394;28;20448;-66
2022/01/26 12:03:10;;;;;;;39.77;22.17;;;1.70;99.90;;;;;;5039321;28;20432;-67
2022/01/26 12:05:45;;;;;;;42.00;23.63;;;1.60;99.90;;;;;;5039293;28;20508;-67
2022/01/26 12:08:13;;;;;;;43.00;24.73;;;1.70;99.90;;;;;;5041734;28;20467;-67
2022/01/26 12:10:39;;;;;;;42.90;25.10;;;1.70;99.90;;;;;;5039550;28;20472;-66
2022/01/26 12:13:09;;;;;;;42.00;24.47;;;1.80;99.90;;;;;;5038468;28;20472;-66
2022/01/26 12:15:43;;;;;;;40.13;24.70;;;1.80;99.90;;;;;;5038135;28;20962;-65
2022/01/26 12:18:25;;;;;;;39.60;23.97;;;1.90;99.90;;;;;;5038441;28;20915;-66
2022/01/26 12:32:38;;;;;;;40.73;24.23;;;1.80;99.90;;;;;;5037002;28;20606;-66
2022/01/26 12:35:17;;;;;;;50.50;27.17;;;1.90;99.90;;;;;;5038233;28;20451;-67
2022/01/26 12:37:55;;;;;;;50.77;27.23;;;1.90;99.90;;;;;;5036693;28;20532;-65
2022/01/26 12:43:12;;;;;;;39.53;22.90;;;1.90;99.90;;;;;;5036369;28;20427;-66
2022/01/26 12:45:40;;;;;;;46.40;24.40;;;1.90;99.90;;;;;;5036683;28;20463;-66
2022/01/26 12:48:09;;;;;;;40.83;25.30;;;2.00;99.90;;;;;;5036396;28;20460;-66
2022/01/26 12:50:39;;;;;;;46.87;25.90;;;2.00;99.90;;;;;;5036330;28;20527;-66
2022/01/26 12:53:06;;;;;;;51.60;26.40;;;2.00;99.90;;;;;;5036126;28;20483;-66
2022/01/26 12:55:35;;;;;;;51.00;28.50;;;1.90;99.90;;;;;;5035893;28;20463;-66
2022/01/26 12:58:02;;;;;;;49.13;25.97;;;1.90;99.90;;;;;;5036235;28;20456;-66
2022/01/26 13:00:41;;;;;;;47.83;25.00;;;1.90;99.90;;;;;;5035476;28;20457;-67
2022/01/26 13:03:13;;;;;;;54.80;28.00;;;1.90;99.90;;;;;;5040151;28;20456;-67
2022/01/26 13:05:40;;;;;;;48.93;25.13;;;1.90;99.90;;;;;;5041253;28;20448;-68
2022/01/26 13:08:10;;;;;;;51.73;25.27;;;1.90;99.90;;;;;;5036879;28;20820;-66
2022/01/26 13:10:38;;;;;;;51.40;26.60;;;1.90;99.90;;;;;;5035986;28;20548;-66
2022/01/26 13:13:18;;;;;;;47.07;25.23;;;1.90;99.90;;;;;;5036121;28;20484;-67
2022/01/26 13:15:55;;;;;;;49.77;25.47;;;2.00;99.90;;;;;;5035854;28;20822;-66
2022/01/26 13:18:42;;;;;;;41.57;23.40;;;2.00;99.90;;;;;;5035884;28;20798;-66
2022/01/26 13:24:11;;;;;;;39.27;22.50;;;1.90;99.90;;;;;;5003005;28;20543;-66
2022/01/26 13:26:48;;;;;;;39.83;23.10;;;1.90;99.90;;;;;;5035918;28;20467;-66
2022/01/26 13:29:26;;;;;;;45.63;22.93;;;1.70;99.90;;;;;;5035875;28;20502;-66
2022/01/26 13:32:30;;;;;;;46.07;22.13;;;1.70;99.90;;;;;;5036190;28;20530;-67
2022/01/26 13:35:15;;;;;;;40.33;22.87;;;1.60;99.90;;;;;;5036160;28;20448;-66
2022/01/26 13:37:58;;;;;;;41.10;23.07;;;1.60;99.90;;;;;;5035744;28;20484;-67
2022/01/26 13:40:40;;;;;;;39.20;22.90;;;1.60;99.90;;;;;;5035464;28;20516;-66
2022/01/26 13:49:22;;;;;;;43.77;22.10;;;1.60;99.90;;;;;;5000654;28;20448;-66
2022/01/26 13:52:02;;;;;;;38.63;20.83;;;1.50;99.90;;;;;;5036842;28;20476;-66
2022/01/26 13:54:53;;;;;;;41.20;22.40;;;1.40;99.90;;;;;;5036733;28;20464;-65
2022/01/26 13:57:46;;;;;;;39.90;22.07;;;1.30;99.90;;;;;;5035832;28;20912;-67
2022/01/26 14:00:17;;;;;;;45.03;22.30;;;1.40;99.90;;;;;;5036977;28;20464;-66
2022/01/26 14:02:44;;;;;;;32.93;20.63;;;1.30;99.90;;;;;;5036277;28;20437;-67
2022/01/26 14:05:13;;;;;;;39.30;22.67;;;1.30;99.90;;;;;;5035280;28;20456;-66
2022/01/26 14:07:39;;;;;;;41.00;22.40;;;1.30;99.90;;;;;;5035583;28;20488;-67
2022/01/26 14:10:07;;;;;;;39.23;22.93;;;1.30;99.90;;;;;;5036715;28;20456;-67
2022/01/26 14:12:39;;;;;;;40.73;23.13;;;1.30;99.90;;;;;;5036599;28;20527;-66
2022/01/26 14:15:08;;;;;;;35.50;20.47;;;1.30;99.90;;;;;;5035431;28;20441;-66
2022/01/26 14:17:43;;;;;;;43.17;22.20;;;1.30;99.90;;;;;;5035273;28;20456;-66
2022/01/26 14:20:19;;;;;;;48.70;23.00;;;1.30;99.90;;;;;;5034995;28;20444;-67
2022/01/26 14:23:13;;;;;;;52.80;21.87;;;1.20;99.90;;;;;;5040150;28;20432;-67
2022/01/26 14:25:42;;;;;;;42.93;21.47;;;1.10;99.90;;;;;;5046678;28;20528;-67
2022/01/26 14:28:12;;;;;;;37.40;21.73;;;1.10;99.90;;;;;;5044092;28;20819;-67
2022/01/26 14:30:48;;;;;;;46.90;22.57;;;1.00;99.90;;;;;;5035048;28;21010;-67
2022/01/26 14:55:40;;;;;;;35.57;19.90;;;0.80;99.90;;;;;;5034496;28;20457;-66
2022/01/26 15:32:00;;;;;;;29.07;16.60;;;1.20;99.90;;;;;;5040869;28;20459;-66
2022/01/26 15:34:23;;;;;;;26.80;17.80;;;1.20;99.90;;;;;;5040073;28;20897;-68
2022/01/26 15:42:33;;;;;;;25.63;16.40;;;1.20;99.90;;;;;;5040413;28;20823;-68
2022/01/26 15:48:43;;;;;;;28.00;17.10;;;1.30;99.90;;;;;;5040456;28;20441;-67
2022/01/26 15:50:56;;;;;;;31.90;17.60;;;1.40;99.90;;;;;;4979174;28;20485;-66
2022/01/26 15:59:04;;;;;;;32.87;17.70;;;1.40;99.90;;;;;;5039766;28;20482;-67
2022/01/26 16:04:24;;;;;;;31.90;18.10;;;1.40;99.90;;;;;;5040255;28;20427;-67
2022/01/26 16:07:06;;;;;;;37.07;20.03;;;1.40;99.90;;;;;;5040785;28;20458;-67
2022/01/26 16:19:06;;;;;;;32.97;18.90;;;1.30;99.90;;;;;;5040257;28;20424;-68
2022/01/26 16:21:05;;;;;;;39.40;20.70;;;1.30;99.90;;;;;;5039416;28;20529;-67
2022/01/26 16:37:46;;;;;;;31.23;18.70;;;1.30;99.90;;;;;;5036689;28;20429;-66
2022/01/26 17:24:24;;;;;;;42.17;20.00;;;1.30;99.90;;;;;;5036506;28;20408;-66
2022/01/26 18:16:28;;;;;;;30.13;18.77;;;1.10;99.90;;;;;;5035751;28;20452;-67
2022/01/26 18:32:55;;;;;;;31.17;19.87;;;1.10;99.90;;;;;;5034588;28;20424;-68
2022/01/26 18:46:49;;;;;;;33.90;20.00;;;1.20;99.90;;;;;;5034526;28;20419;-67
2022/01/26 18:49:18;;;;;;;32.17;20.33;;;1.20;99.90;;;;;;5033902;28;20436;-67
2022/01/26 18:51:48;;;;;;;35.57;21.30;;;1.20;99.90;;;;;;5033659;28;20472;-68
2022/01/26 18:54:16;;;;;;;34.90;21.40;;;1.20;99.90;;;;;;5033948;28;20979;-68
2022/01/26 18:56:45;;;;;;;37.83;20.87;;;1.20;99.90;;;;;;5034361;28;20456;-68
2022/01/26 18:59:15;;;;;;;39.03;21.63;;;1.30;99.90;;;;;;5034296;28;20487;-68
2022/01/26 19:01:42;;;;;;;32.73;20.13;;;1.30;99.90;;;;;;5033896;28;20484;-68
2022/01/26 19:04:09;;;;;;;41.37;21.07;;;1.30;99.90;;;;;;5033975;28;20448;-68
2022/01/26 19:06:39;;;;;;;38.40;22.50;;;1.40;99.90;;;;;;5033838;28;20567;-68
2022/01/26 19:09:06;;;;;;;40.03;21.70;;;1.30;99.90;;;;;;5033944;28;20452;-68
2022/01/26 19:11:33;;;;;;;36.83;20.37;;;1.30;99.90;;;;;;5033977;28;20476;-68
2022/01/26 19:14:00;;;;;;;39.10;21.53;;;1.30;99.90;;;;;;5034342;28;20485;-68
2022/01/26 19:16:35;;;;;;;38.83;21.60;;;1.20;99.90;;;;;;5036582;28;20940;-68
2022/01/26 19:19:10;;;;;;;38.33;21.33;;;1.20;99.90;;;;;;5033747;28;20535;-68
2022/01/26 19:24:41;;;;;;;44.27;22.70;;;1.10;99.90;;;;;;5033517;28;20464;-68
2022/01/26 19:27:18;;;;;;;37.60;22.33;;;1.20;99.90;;;;;;5033718;28;20527;-68
2022/01/26 19:30:01;;;;;;;39.00;21.37;;;1.20;99.90;;;;;;5033825;28;20440;-69
2022/01/26 19:43:49;;;;;;;34.50;21.43;;;1.20;99.90;;;;;;5034063;28;20463;-67
2022/01/26 19:46:27;;;;;;;38.53;22.00;;;1.20;99.90;;;;;;5033936;28;20611;-68
2022/01/26 19:51:51;;;;;;;45.77;25.90;;;1.20;99.90;;;;;;5033756;28;20817;-67
2022/01/26 19:54:18;;;;;;;40.13;22.60;;;1.10;99.90;;;;;;5033699;28;20471;-67
2022/01/26 19:56:44;;;;;;;34.53;19.33;;;1.20;99.90;;;;;;5033839;28;20456;-68
2022/01/26 19:59:11;;;;;;;41.50;23.90;;;1.20;99.90;;;;;;5034140;28;20457;-68
2022/01/26 20:01:38;;;;;;;36.10;21.40;;;1.20;99.90;;;;;;5038526;28;20487;-68
2022/01/26 20:04:06;;;;;;;37.60;21.50;;;1.10;99.90;;;;;;5040054;28;20452;-69
2022/01/26 20:06:36;;;;;;;39.63;21.70;;;1.10;99.90;;;;;;5042751;28;20457;-69
2022/01/26 20:09:07;;;;;;;34.60;21.70;;;1.20;99.90;;;;;;5038742;28;20437;-67
2022/01/26 20:11:39;;;;;;;36.53;22.97;;;1.20;99.90;;;;;;5038478;28;20472;-69
2022/01/26 20:14:06;;;;;;;41.07;22.60;;;1.20;99.90;;;;;;5038224;28;20460;-69
2022/01/26 20:16:34;;;;;;;35.37;21.50;;;1.20;99.90;;;;;;5038660;28;20460;-69
2022/01/26 20:19:03;;;;;;;39.40;21.60;;;1.20;99.90;;;;;;5037852;28;20452;-68
2022/01/26 20:21:31;;;;;;;32.70;20.73;;;1.10;99.90;;;;;;5038220;28;20483;-68
2022/01/26 20:23:57;;;;;;;35.90;22.27;;;1.10;99.90;;;;;;5038132;28;20452;-68
2022/01/26 20:26:24;;;;;;;39.67;21.80;;;1.00;99.90;;;;;;5056220;28;20458;-68
2022/01/26 20:28:51;;;;;;;34.80;20.73;;;1.00;99.90;;;;;;5042104;28;20452;-68
2022/01/26 20:31:22;;;;;;;39.83;21.97;;;1.10;99.90;;;;;;5037658;28;20567;-67
2022/01/26 20:33:50;;;;;;;36.10;20.47;;;1.10;99.90;;;;;;5037413;28;20465;-67
2022/01/26 20:36:18;;;;;;;31.43;19.20;;;1.10;99.90;;;;;;5037195;28;20935;-67
2022/01/26 20:38:46;;;;;;;37.10;21.97;;;1.10;99.90;;;;;;5038157;28;20452;-68
2022/01/26 20:41:14;;;;;;;29.97;19.23;;;1.10;99.90;;;;;;5037084;28;21009;-68
2022/01/26 20:43:41;;;;;;;34.00;20.90;;;1.10;99.90;;;;;;5037538;28;20452;-68
2022/01/26 20:46:09;;;;;;;34.43;20.97;;;1.10;99.90;;;;;;5037345;28;20464;-68
2022/01/26 20:48:36;;;;;;;35.87;21.63;;;1.10;99.90;;;;;;5038982;28;20452;-68
2022/01/26 20:51:04;;;;;;;30.50;19.57;;;1.10;99.90;;;;;;5037656;28;20475;-68
2022/01/26 20:53:31;;;;;;;28.80;18.33;;;1.10;99.90;;;;;;5037085;28;20456;-69
2022/01/26 20:55:59;;;;;;;34.70;21.30;;;1.10;99.90;;;;;;5037223;28;20448;-69
2022/01/26 20:58:26;;;;;;;32.87;19.00;;;1.10;99.90;;;;;;5037492;28;20460;-68
2022/01/26 21:00:52;;;;;;;38.80;22.30;;;1.00;99.90;;;;;;5037008;28;20476;-68
2022/01/26 21:03:21;;;;;;;43.50;24.97;;;1.00;99.90;;;;;;5036938;28;20751;-68
2022/01/26 21:05:48;;;;;;;38.43;20.20;;;1.10;99.90;;;;;;5037077;28;20467;-67
2022/01/26 21:08:16;;;;;;;41.90;20.83;;;1.10;99.90;;;;;;5037160;28;20452;-67
2022/01/26 21:10:44;;;;;;;35.27;20.20;;;1.00;99.90;;;;;;5036970;28;20472;-69
2022/01/26 21:13:13;;;;;;;32.70;20.00;;;1.00;99.90;;;;;;5036849;28;20935;-69
2022/01/26 21:15:40;;;;;;;34.70;19.43;;;1.10;99.90;;;;;;5036001;28;20522;-68
2022/01/26 21:18:06;;;;;;;32.00;20.67;;;1.10;99.90;;;;;;5036855;28;20460;-68
2022/01/26 21:20:33;;;;;;;34.93;19.80;;;1.00;99.90;;;;;;5036518;28;20970;-67
2022/01/26 21:23:00;;;;;;;29.03;18.63;;;1.00;99.90;;;;;;5037144;28;20449;-66
2022/01/26 21:25:26;;;;;;;35.93;19.60;;;0.90;99.90;;;;;;5036519;28;20455;-69
2022/01/26 21:27:53;;;;;;;32.10;19.07;;;0.80;99.90;;;;;;5036980;28;20457;-68
2022/01/26 21:30:21;;;;;;;34.33;20.10;;;0.70;99.90;;;;;;5036402;28;20456;-69
2022/01/26 21:32:48;;;;;;;31.67;20.33;;;0.60;99.90;;;;;;5036329;28;20456;-69
2022/01/26 21:35:16;;;;;;;33.63;19.03;;;0.60;99.90;;;;;;5036348;28;20476;-69
2022/01/26 21:37:43;;;;;;;36.47;19.37;;;0.70;99.90;;;;;;5036639;28;20926;-68
2022/01/26 21:40:11;;;;;;;32.30;19.70;;;0.70;99.90;;;;;;5036485;28;20452;-68
2022/01/26 21:42:37;;;;;;;32.90;18.80;;;0.70;99.90;;;;;;5036089;28;20991;-69
2022/01/26 21:45:05;;;;;;;31.43;18.87;;;0.70;99.90;;;;;;5036792;28;20464;-69
2022/01/26 21:47:33;;;;;;;33.10;19.53;;;0.80;99.90;;;;;;5036094;28;20456;-69
2022/01/26 21:50:01;;;;;;;33.97;21.03;;;0.70;99.90;;;;;;5036531;28;20444;-69
2022/01/26 21:52:29;;;;;;;35.93;19.87;;;0.70;99.90;;;;;;5036506;28;20476;-69
2022/01/26 21:54:56;;;;;;;30.80;20.03;;;0.70;99.90;;;;;;5035865;28;20526;-69
2022/01/26 21:57:23;;;;;;;31.63;19.03;;;0.70;99.90;;;;;;5036008;28;20456;-68
2022/01/26 21:59:50;;;;;;;33.60;19.27;;;0.70;99.90;;;;;;5036476;28;20459;-67
2022/01/26 22:02:17;;;;;;;29.60;18.30;;;0.70;99.90;;;;;;5035585;28;20495;-67
2022/01/26 22:04:45;;;;;;;32.67;18.70;;;0.70;99.90;;;;;;5035692;28;20456;-67
2022/01/26 22:07:12;;;;;;;33.70;18.40;;;0.80;99.90;;;;;;5035453;28;20959;-69
2022/01/26 22:09:39;;;;;;;32.30;18.10;;;0.80;99.90;;;;;;5035768;28;20452;-69
2022/01/26 22:12:07;;;;;;;31.03;18.83;;;0.80;99.90;;;;;;5035656;28;20483;-67
2022/01/26 22:14:34;;;;;;;33.47;18.50;;;0.80;99.90;;;;;;5035080;28;20503;-68
2022/01/26 22:17:01;;;;;;;37.27;19.17;;;0.80;99.90;;;;;;5034738;28;20931;-67
2022/01/26 22:19:28;;;;;;;31.33;18.03;;;0.80;99.90;;;;;;5035842;28;20456;-67
2022/01/26 22:21:56;;;;;;;31.07;18.93;;;0.80;99.90;;;;;;5035028;28;20479;-69